createdAt,value
2023-01-28T00:00:09.343Z,101246.88
2023-01-28T00:01:16.609Z,101241.75
2023-01-28T00:02:18.975Z,101240.91
2023-01-28T00:03:21.849Z,101240.06
2023-01-28T00:04:24.445Z,101240.06
2023-01-28T00:05:28.400Z,101239.56
2023-01-28T00:06:30.818Z,101236.69
2023-01-28T00:07:33.088Z,101245.66
2023-01-28T00:08:35.926Z,101240.41
2023-01-28T00:09:39.598Z,101244.16
2023-01-28T00:10:43.289Z,101243.13
2023-01-28T00:11:45.712Z,101243.97
2023-01-28T00:12:49.405Z,101237.00
2023-01-28T00:13:53.102Z,101232.59
2023-01-28T00:14:55.559Z,101238.88
2023-01-28T00:15:59.958Z,101232.75
2023-01-28T00:17:05.827Z,101240.75
2023-01-28T00:18:08.229Z,101241.78
2023-01-28T00:19:10.722Z,101245.50
2023-01-28T00:20:15.157Z,101245.34
2023-01-28T00:21:17.476Z,101250.78
2023-01-28T00:22:19.761Z,101245.50
2023-01-28T00:23:21.991Z,101242.78
2023-01-28T00:24:24.254Z,101248.22
2023-01-28T00:25:27.022Z,101253.50
2023-01-28T00:26:29.428Z,101252.84
2023-01-28T00:27:35.441Z,101247.41
2023-01-28T00:28:37.928Z,101250.13
2023-01-28T00:29:40.380Z,101247.53
2023-01-28T00:30:42.795Z,101248.41
2023-01-28T00:31:48.325Z,101245.00
2023-01-28T00:32:50.766Z,101248.59
2023-01-28T00:33:56.267Z,101251.31
2023-01-28T00:34:58.730Z,101247.72
2023-01-28T00:36:02.684Z,101248.22
2023-01-28T00:37:05.095Z,101240.25
2023-01-28T00:38:07.483Z,101241.63
2023-01-28T00:39:15.559Z,101240.56
2023-01-28T00:40:18.294Z,101250.25
2023-01-28T00:41:23.049Z,101250.25
2023-01-28T00:42:28.878Z,101252.16
2023-01-28T00:43:31.665Z,101253.84
2023-01-28T00:44:35.443Z,101254.88
2023-01-28T00:45:39.287Z,101253.84
2023-01-28T00:46:42.248Z,101254.03
2023-01-28T00:47:45.553Z,101254.19
2023-01-28T00:48:48.186Z,101255.03
2023-01-28T00:49:50.631Z,101252.31
2023-01-28T00:50:53.044Z,101248.59
2023-01-28T00:51:55.919Z,101256.75
2023-01-28T00:53:01.626Z,101256.75
2023-01-28T00:54:06.588Z,101253.16
2023-01-28T00:55:09.564Z,101256.06
2023-01-28T00:56:14.855Z,101248.59
2023-01-28T00:57:17.363Z,101250.78
2023-01-28T00:58:20.133Z,101248.91
2023-01-28T00:59:22.744Z,101262.19
2023-01-28T01:00:26.179Z,101259.63
2023-01-28T01:01:28.652Z,101253.16
2023-01-28T01:02:31.734Z,101252.50
2023-01-28T01:03:34.034Z,101257.06
2023-01-28T01:04:36.484Z,101248.75
2023-01-28T01:05:38.998Z,101256.88
2023-01-28T01:06:43.832Z,101251.63
2023-01-28T01:07:46.505Z,101247.25
2023-01-28T01:08:50.649Z,101249.78
2023-01-28T01:09:55.899Z,101255.22
2023-01-28T01:10:59.755Z,101252.50
2023-01-28T01:12:02.294Z,101252.69
2023-01-28T01:13:06.460Z,101256.88
2023-01-28T01:14:10.703Z,101254.34
2023-01-28T01:15:15.599Z,101259.63
2023-01-28T01:16:18.281Z,101256.06
2023-01-28T01:17:25.968Z,101253.34
2023-01-28T01:22:07.552Z,101256.75
2023-01-28T01:23:10.112Z,101264.91
2023-01-28T01:24:12.271Z,101262.19
2023-01-28T01:25:16.998Z,101260.47
2023-01-28T01:26:19.827Z,101247.91
2023-01-28T01:27:22.451Z,101256.88
2023-01-28T01:28:24.937Z,101257.75
2023-01-28T01:29:30.517Z,101259.63
2023-01-28T01:30:33.726Z,101261.31
2023-01-28T01:31:36.376Z,101264.03
2023-01-28T01:32:39.034Z,101262.19
2023-01-28T01:33:45.388Z,101268.63
2023-01-28T01:34:47.631Z,101265.75
2023-01-28T01:35:55.100Z,101274.72
2023-01-28T01:36:58.417Z,101272.88
2023-01-28T01:38:02.179Z,101265.75
2023-01-28T01:39:05.488Z,101273.72
2023-01-28T01:40:09.778Z,101272.00
2023-01-28T01:41:26.856Z,101271.00
2023-01-28T01:42:33.045Z,101267.63
2023-01-28T01:43:57.075Z,101264.72
2023-01-28T01:45:14.437Z,101262.84
2023-01-28T01:46:34.218Z,101265.56
2023-01-28T01:47:47.370Z,101266.56
2023-01-28T01:48:50.167Z,101263.84
2023-01-28T01:49:52.923Z,101265.75
2023-01-28T01:50:59.138Z,101258.41
2023-01-28T01:52:07.799Z,101262.19
2023-01-28T01:53:14.484Z,101267.44
2023-01-28T01:54:18.486Z,101265.75
2023-01-28T01:55:24.234Z,101266.75
2023-01-28T01:56:32.551Z,101267.63
2023-01-28T01:57:36.811Z,101267.63
2023-01-28T01:58:43.307Z,101262.19
2023-01-28T01:59:46.219Z,101264.03
2023-01-28T02:00:48.533Z,101270.16
2023-01-28T02:01:51.130Z,101263.03
2023-01-28T02:02:54.205Z,101266.56
2023-01-28T02:04:26.885Z,101267.63
2023-01-28T02:05:29.143Z,101266.56
2023-01-28T02:06:32.419Z,101263.84
2023-01-28T02:07:36.053Z,101263.03
2023-01-28T02:08:38.291Z,101261.13
2023-01-28T02:09:43.141Z,101270.16
2023-01-28T02:11:08.911Z,101260.31
2023-01-28T02:12:29.888Z,101260.13
2023-01-28T02:13:36.744Z,101261.00
2023-01-28T02:14:45.104Z,101261.13
2023-01-28T02:15:49.332Z,101254.69
2023-01-28T02:16:51.960Z,101257.41
2023-01-28T02:17:55.067Z,101264.72
2023-01-28T02:18:57.359Z,101261.00
2023-01-28T02:20:04.329Z,101257.41
2023-01-28T02:21:28.246Z,101258.28
2023-01-28T02:22:49.409Z,101254.69
2023-01-28T02:24:09.138Z,101258.09
2023-01-28T02:25:53.968Z,101255.38
2023-01-28T02:27:19.146Z,101261.47
2023-01-28T02:28:31.219Z,101265.25
2023-01-28T02:29:44.486Z,101263.34
2023-01-28T02:30:57.464Z,101258.94
2023-01-28T02:32:20.527Z,101263.53
2023-01-28T02:33:35.967Z,101270.00
2023-01-28T02:34:47.224Z,101270.00
2023-01-28T02:35:53.601Z,101274.59
2023-01-28T02:37:07.678Z,101278.16
2023-01-28T02:38:34.536Z,101270.16
2023-01-28T02:39:42.752Z,101269.28
2023-01-28T02:41:02.837Z,101277.44
2023-01-28T02:42:07.865Z,101280.03
2023-01-28T02:43:11.476Z,101281.03
2023-01-28T02:44:13.729Z,101273.06
2023-01-28T02:45:22.265Z,101274.91
2023-01-28T02:46:46.350Z,101273.22
2023-01-28T02:48:00.522Z,101282.22
2023-01-28T02:49:06.695Z,101284.94
2023-01-28T02:50:19.988Z,101281.53
2023-01-28T02:51:43.951Z,101276.09
2023-01-28T02:53:20.545Z,101284.25
2023-01-28T02:54:42.406Z,101281.72
2023-01-28T02:56:19.968Z,101281.06
2023-01-28T02:57:43.348Z,101283.91
2023-01-28T02:59:30.650Z,101275.94
2023-01-28T03:00:50.771Z,101284.09
2023-01-28T03:02:01.689Z,101284.28
2023-01-28T03:03:18.863Z,101287.00
2023-01-28T03:04:29.362Z,101284.28
2023-01-28T03:05:37.849Z,101287.16
2023-01-28T03:06:44.583Z,101285.28
2023-01-28T03:07:47.993Z,101283.59
2023-01-28T03:09:15.793Z,101275.44
2023-01-28T03:10:21.244Z,101281.03
2023-01-28T03:11:43.092Z,101279.19
2023-01-28T03:13:07.185Z,101281.91
2023-01-28T03:14:30.783Z,101280.19
2023-01-28T03:16:00.028Z,101281.03
2023-01-28T03:17:23.946Z,101278.31
2023-01-28T03:19:02.972Z,101288.34
2023-01-28T03:20:24.114Z,101286.66
2023-01-28T03:21:51.456Z,101284.94
2023-01-28T03:23:15.690Z,101283.09
2023-01-28T03:24:44.744Z,101278.69
2023-01-28T03:26:08.657Z,101293.28
2023-01-28T03:27:46.786Z,101285.28
2023-01-28T03:29:10.002Z,101290.22
2023-01-28T03:30:39.617Z,101286.50
2023-01-28T03:32:05.477Z,101284.13
2023-01-28T03:33:28.389Z,101277.81
2023-01-28T03:34:49.708Z,101286.97
2023-01-28T03:36:11.569Z,101282.72
2023-01-28T03:37:15.334Z,101287.34
2023-01-28T03:38:48.686Z,101284.78
2023-01-28T03:39:51.919Z,101286.63
2023-01-28T03:41:02.836Z,101285.09
2023-01-28T03:42:12.315Z,101288.69
2023-01-28T03:43:35.606Z,101292.25
2023-01-28T03:44:51.447Z,101297.03
2023-01-28T03:45:55.662Z,101291.72
2023-01-28T03:46:58.248Z,101298.03
2023-01-28T03:48:00.591Z,101300.91
2023-01-28T03:49:02.848Z,101295.63
2023-01-28T03:50:06.800Z,101296.69
2023-01-28T03:51:16.796Z,101301.06
2023-01-28T03:52:24.013Z,101303.13
2023-01-28T03:53:28.398Z,101306.00
2023-01-28T03:54:31.856Z,101305.13
2023-01-28T03:55:34.014Z,101311.75
2023-01-28T03:56:37.827Z,101302.78
2023-01-28T03:57:40.664Z,101301.94
2023-01-28T03:58:57.667Z,101306.66
2023-01-28T04:00:01.108Z,101304.97
2023-01-28T04:01:04.046Z,101312.28
2023-01-28T04:02:06.459Z,101311.59
2023-01-28T04:03:16.208Z,101311.59
2023-01-28T04:04:24.660Z,101315.31
2023-01-28T04:05:30.582Z,101316.50
2023-01-28T04:06:34.885Z,101310.41
2023-01-28T04:07:59.883Z,101310.56
2023-01-28T04:09:22.084Z,101316.13
2023-01-28T04:10:31.650Z,101312.75
2023-01-28T04:11:42.229Z,101316.47
2023-01-28T04:12:45.180Z,101319.38
2023-01-28T04:13:49.020Z,101324.81
2023-01-28T04:14:53.124Z,101320.72
2023-01-28T04:16:03.707Z,101319.19
2023-01-28T04:17:11.891Z,101322.91
2023-01-28T04:18:15.942Z,101319.50
2023-01-28T04:19:18.312Z,101325.28
2023-01-28T04:20:21.027Z,101323.56
2023-01-28T04:21:23.725Z,101327.28
2023-01-28T04:22:26.358Z,101322.03
2023-01-28T04:23:30.232Z,101324.91
2023-01-28T04:24:32.852Z,101324.91
2023-01-28T04:25:35.102Z,101320.66
2023-01-28T04:26:40.068Z,101326.09
2023-01-28T04:27:42.758Z,101323.53
2023-01-28T04:28:53.548Z,101331.00
2023-01-28T04:29:56.320Z,101330.16
2023-01-28T04:31:10.180Z,101329.47
2023-01-28T04:32:32.709Z,101333.34
2023-01-28T04:33:57.601Z,101338.13
2023-01-28T04:35:15.717Z,101342.84
2023-01-28T04:36:32.523Z,101339.47
2023-01-28T04:37:59.072Z,101345.03
2023-01-28T04:39:20.715Z,101342.66
2023-01-28T04:40:41.631Z,101335.69
2023-01-28T04:42:06.629Z,101345.00
2023-01-28T04:43:27.397Z,101350.75
2023-01-28T04:44:44.356Z,101341.25
2023-01-28T04:46:07.391Z,101345.13
2023-01-28T04:47:16.723Z,101350.69
2023-01-28T04:48:50.787Z,101348.47
2023-01-28T04:50:05.948Z,101344.22
2023-01-28T04:51:27.932Z,101343.69
2023-01-28T04:52:59.142Z,101347.75
2023-01-28T04:54:15.094Z,101350.78
2023-01-28T04:55:17.865Z,101346.53
2023-01-28T04:56:21.493Z,101354.97
2023-01-28T04:57:24.035Z,101360.56
2023-01-28T04:58:27.024Z,101368.69
2023-01-28T04:59:33.833Z,101360.19
2023-01-28T05:00:36.847Z,101366.31
2023-01-28T05:01:39.462Z,101358.47
2023-01-28T05:02:43.312Z,101374.09
2023-01-28T05:03:45.531Z,101377.63
2023-01-28T05:04:56.105Z,101380.50
2023-01-28T05:06:12.267Z,101377.97
2023-01-28T05:07:17.463Z,101371.84
2023-01-28T05:08:19.740Z,101378.25
2023-01-28T05:09:22.599Z,101381.13
2023-01-28T05:10:28.232Z,101385.72
2023-01-28T05:11:30.455Z,101380.47
2023-01-28T05:12:38.244Z,101381.47
2023-01-28T05:13:42.511Z,101379.75
2023-01-28T05:14:47.628Z,101386.00
2023-01-28T05:15:54.182Z,101388.06
2023-01-28T05:16:56.876Z,101387.06
2023-01-28T05:18:00.148Z,101384.16
2023-01-28T05:19:05.497Z,101385.88
2023-01-28T05:20:15.122Z,101381.63
2023-01-28T05:21:18.771Z,101387.06
2023-01-28T05:22:26.762Z,101376.34
2023-01-28T05:23:47.449Z,101384.47
2023-01-28T05:24:49.670Z,101383.63
2023-01-28T05:25:51.961Z,101388.22
2023-01-28T05:26:54.231Z,101387.34
2023-01-28T05:27:57.631Z,101384.78
2023-01-28T05:29:02.441Z,101393.78
2023-01-28T05:30:07.166Z,101391.22
2023-01-28T05:31:10.987Z,101386.81
2023-01-28T05:32:13.599Z,101395.97
2023-01-28T05:33:15.806Z,101391.38
2023-01-28T05:34:18.460Z,101390.53
2023-01-28T05:35:20.807Z,101390.38
2023-01-28T05:36:23.113Z,101396.81
2023-01-28T05:37:25.441Z,101388.84
2023-01-28T05:38:33.871Z,101396.81
2023-01-28T05:39:36.081Z,101387.97
2023-01-28T05:40:38.941Z,101394.25
2023-01-28T05:41:41.109Z,101401.53
2023-01-28T05:42:43.660Z,101398.81
2023-01-28T05:44:08.754Z,101404.22
2023-01-28T05:45:37.054Z,101407.81
2023-01-28T05:46:45.644Z,101417.94
2023-01-28T05:48:09.908Z,101409.13
2023-01-28T05:49:24.037Z,101409.97
2023-01-28T05:50:50.121Z,101409.97
2023-01-28T05:51:56.870Z,101410.97
2023-01-28T05:53:00.014Z,101409.13
2023-01-28T05:54:09.146Z,101413.53
2023-01-28T05:55:11.663Z,101414.56
2023-01-28T05:56:13.836Z,101410.13
2023-01-28T05:57:17.278Z,101411.97
2023-01-28T05:58:21.108Z,101418.28
2023-01-28T05:59:23.395Z,101421.00
2023-01-28T06:00:28.122Z,101422.81
2023-01-28T06:01:31.935Z,101421.00
2023-01-28T06:02:34.728Z,101417.41
2023-01-28T06:03:38.100Z,101417.28
2023-01-28T06:04:41.532Z,101419.13
2023-01-28T06:05:46.015Z,101418.13
2023-01-28T06:06:48.252Z,101421.66
2023-01-28T06:07:53.905Z,101422.53
2023-01-28T06:08:56.173Z,101422.53
2023-01-28T06:10:02.635Z,101421.66
2023-01-28T06:11:05.220Z,101430.66
2023-01-28T06:12:11.001Z,101431.50
2023-01-28T06:13:27.295Z,101438.63
2023-01-28T06:15:00.484Z,101438.47
2023-01-28T06:16:12.478Z,101442.91
2023-01-28T06:17:35.507Z,101440.50
2023-01-28T06:18:42.873Z,101442.34
2023-01-28T06:19:45.157Z,101444.06
2023-01-28T06:20:50.594Z,101445.06
2023-01-28T06:21:52.919Z,101445.06
2023-01-28T06:22:55.680Z,101445.06
2023-01-28T06:23:58.072Z,101446.06
2023-01-28T06:25:00.303Z,101455.06
2023-01-28T06:26:02.652Z,101449.50
2023-01-28T06:27:04.884Z,101456.78
2023-01-28T06:28:07.980Z,101459.63
2023-01-28T06:29:10.678Z,101464.22
2023-01-28T06:30:13.417Z,101473.19
2023-01-28T06:31:15.765Z,101461.50
2023-01-28T06:32:18.048Z,101461.66
2023-01-28T06:33:20.788Z,101457.06
2023-01-28T06:34:23.050Z,101468.06
2023-01-28T06:35:25.304Z,101471.63
2023-01-28T06:36:27.739Z,101466.22
2023-01-28T06:37:31.020Z,101475.38
2023-01-28T06:38:33.225Z,101479.09
2023-01-28T06:39:35.483Z,101471.78
2023-01-28T06:40:37.735Z,101483.66
2023-01-28T06:41:40.016Z,101481.94
2023-01-28T06:42:42.288Z,101477.53
2023-01-28T06:43:44.501Z,101485.81
2023-01-28T06:44:48.418Z,101487.66
2023-01-28T06:45:50.832Z,101483.94
2023-01-28T06:46:53.320Z,101486.97
2023-01-28T06:47:55.556Z,101489.53
2023-01-28T06:48:57.727Z,101488.81
2023-01-28T06:49:59.929Z,101493.41
2023-01-28T06:51:02.153Z,101489.69
2023-01-28T06:52:04.754Z,101488.97
2023-01-28T06:53:06.897Z,101485.44
2023-01-28T06:54:10.356Z,101491.84
2023-01-28T06:55:12.641Z,101499.16
2023-01-28T06:56:14.934Z,101500.16
2023-01-28T06:57:17.197Z,101498.28
2023-01-28T06:58:21.460Z,101493.84
2023-01-28T06:59:24.123Z,101496.72
2023-01-28T07:00:26.977Z,101503.00
2023-01-28T07:01:29.273Z,101501.16
2023-01-28T07:02:31.520Z,101500.44
2023-01-28T07:03:33.755Z,101498.75
2023-01-28T07:04:35.937Z,101494.31
2023-01-28T07:05:39.050Z,101499.75
2023-01-28T07:06:41.289Z,101504.28
2023-01-28T07:07:43.549Z,101499.91
2023-01-28T07:08:45.795Z,101499.91
2023-01-28T07:09:48.457Z,101506.16
2023-01-28T07:10:50.703Z,101508.88
2023-01-28T07:11:52.913Z,101508.03
2023-01-28T07:12:55.184Z,101505.31
2023-01-28T07:13:57.715Z,101508.03
2023-01-28T07:15:00.329Z,101509.72
2023-01-28T07:16:04.273Z,101506.16
2023-01-28T07:17:06.581Z,101509.03
2023-01-28T07:18:08.778Z,101506.31
2023-01-28T07:19:13.206Z,101505.31
2023-01-28T07:20:16.357Z,101505.16
2023-01-28T07:21:18.763Z,101512.44
2023-01-28T07:22:21.017Z,101513.31
2023-01-28T07:23:23.839Z,101510.59
2023-01-28T07:24:29.523Z,101514.13
2023-01-28T07:25:31.913Z,101510.59
2023-01-28T07:26:35.560Z,101517.72
2023-01-28T07:27:38.002Z,101509.72
2023-01-28T07:28:40.270Z,101510.59
2023-01-28T07:29:42.553Z,101514.28
2023-01-28T07:30:44.783Z,101522.44
2023-01-28T07:31:47.556Z,101516.16
2023-01-28T07:32:58.177Z,101518.00
2023-01-28T07:34:00.760Z,101523.59
2023-01-28T07:35:02.974Z,101516.28
2023-01-28T07:36:05.615Z,101521.59
2023-01-28T07:37:09.901Z,101513.59
2023-01-28T07:38:12.752Z,101519.16
2023-01-28T07:39:14.991Z,101510.19
2023-01-28T07:40:17.450Z,101510.88
2023-01-28T07:41:25.078Z,101516.63
2023-01-28T07:42:27.484Z,101513.91
2023-01-28T07:43:29.850Z,101513.91
2023-01-28T07:44:33.827Z,101511.19
2023-01-28T07:45:36.562Z,101513.91
2023-01-28T07:46:38.722Z,101510.34
2023-01-28T07:47:41.781Z,101511.19
2023-01-28T07:48:44.065Z,101512.19
2023-01-28T07:49:46.261Z,101512.34
2023-01-28T07:50:49.716Z,101510.50
2023-01-28T07:51:51.965Z,101508.63
2023-01-28T07:52:54.300Z,101507.78
2023-01-28T07:53:57.151Z,101508.63
2023-01-28T07:54:59.487Z,101509.63
2023-01-28T07:56:02.195Z,101512.34
2023-01-28T07:57:09.992Z,101506.94
2023-01-28T07:58:12.859Z,101509.63
2023-01-28T07:59:16.948Z,101506.94
2023-01-28T08:00:20.158Z,101507.78
2023-01-28T08:01:22.474Z,101512.34
2023-01-28T08:02:24.794Z,101518.63
2023-01-28T08:03:29.872Z,101513.91
2023-01-28T08:04:32.165Z,101521.19
2023-01-28T08:05:43.465Z,101515.78
2023-01-28T08:06:46.510Z,101512.91
2023-01-28T08:07:49.315Z,101522.75
2023-01-28T08:08:51.671Z,101513.59
2023-01-28T08:09:53.970Z,101519.00
2023-01-28T08:10:56.418Z,101510.19
2023-01-28T08:11:59.927Z,101516.44
2023-01-28T08:13:02.206Z,101520.03
2023-01-28T08:14:04.915Z,101520.72
2023-01-28T08:15:07.988Z,101517.84
2023-01-28T08:16:12.787Z,101518.72
2023-01-28T08:17:15.053Z,101515.13
2023-01-28T08:18:18.834Z,101524.31
2023-01-28T08:19:22.299Z,101524.97
2023-01-28T08:20:29.129Z,101525.84
2023-01-28T08:21:32.322Z,101528.56
2023-01-28T08:22:36.706Z,101524.97
2023-01-28T08:23:38.934Z,101525.84
2023-01-28T08:24:42.845Z,101522.28
2023-01-28T08:25:45.640Z,101522.13
2023-01-28T08:26:48.895Z,101523.97
2023-01-28T08:27:51.271Z,101519.56
2023-01-28T08:28:53.452Z,101515.69
2023-01-28T08:29:56.688Z,101515.00
2023-01-28T08:31:04.708Z,101513.84
2023-01-28T08:32:08.254Z,101514.69
2023-01-28T08:33:13.085Z,101522.81
2023-01-28T08:34:16.343Z,101528.25
2023-01-28T08:35:18.618Z,101522.66
2023-01-28T08:36:21.649Z,101524.38
2023-01-28T08:37:24.476Z,101525.22
2023-01-28T08:38:27.015Z,101530.50
2023-01-28T08:39:29.227Z,101533.22
2023-01-28T08:40:31.720Z,101524.06
2023-01-28T08:41:37.459Z,101532.19
2023-01-28T08:42:46.498Z,101531.19
2023-01-28T08:43:49.193Z,101534.78
2023-01-28T08:44:51.428Z,101536.63
2023-01-28T08:45:56.167Z,101537.50
2023-01-28T08:46:58.313Z,101533.75
2023-01-28T08:48:06.845Z,101535.63
2023-01-28T08:49:09.750Z,101534.63
2023-01-28T08:50:13.226Z,101534.78
2023-01-28T08:51:16.780Z,101541.03
2023-01-28T08:52:19.130Z,101540.88
2023-01-28T08:53:21.451Z,101540.03
2023-01-28T08:54:23.679Z,101530.03
2023-01-28T08:55:26.718Z,101538.19
2023-01-28T08:56:30.708Z,101538.19
2023-01-28T08:57:32.911Z,101546.31
2023-01-28T08:58:35.182Z,101536.34
2023-01-28T08:59:41.051Z,101552.59
2023-01-28T09:00:44.577Z,101550.72
2023-01-28T09:01:48.474Z,101543.44
2023-01-28T09:02:53.911Z,101548.88
2023-01-28T09:03:59.033Z,101546.16
2023-01-28T09:05:01.484Z,101552.44
2023-01-28T09:06:06.315Z,101544.16
2023-01-28T09:07:08.875Z,101549.56
2023-01-28T09:08:14.583Z,101548.72
2023-01-28T09:09:16.872Z,101550.25
2023-01-28T09:10:20.685Z,101554.69
2023-01-28T09:11:22.861Z,101550.13
2023-01-28T09:12:25.232Z,101559.25
2023-01-28T09:13:30.135Z,101560.09
2023-01-28T09:14:32.380Z,101558.25
2023-01-28T09:15:35.283Z,101551.97
2023-01-28T09:16:37.960Z,101548.09
2023-01-28T09:17:40.702Z,101548.09
2023-01-28T09:18:42.997Z,101551.69
2023-01-28T09:19:45.242Z,101556.94
2023-01-28T09:20:47.667Z,101554.25
2023-01-28T09:21:50.195Z,101553.25
2023-01-28T09:22:52.419Z,101559.66
2023-01-28T09:23:55.905Z,101555.94
2023-01-28T09:24:59.412Z,101552.91
2023-01-28T09:26:02.740Z,101563.75
2023-01-28T09:27:04.871Z,101554.63
2023-01-28T09:28:07.393Z,101556.34
2023-01-28T09:29:10.987Z,101563.31
2023-01-28T09:30:14.402Z,101564.31
2023-01-28T09:31:16.756Z,101562.44
2023-01-28T09:32:19.099Z,101563.31
2023-01-28T09:33:21.330Z,101566.88
2023-01-28T09:34:23.579Z,101570.59
2023-01-28T09:35:25.923Z,101564.16
2023-01-28T09:36:30.523Z,101563.16
2023-01-28T09:37:33.297Z,101565.88
2023-01-28T09:38:37.357Z,101564.88
2023-01-28T09:39:39.569Z,101567.59
2023-01-28T09:40:44.691Z,101562.84
2023-01-28T09:42:13.146Z,101561.00
2023-01-28T09:43:45.008Z,101556.41
2023-01-28T09:45:09.095Z,101566.28
2023-01-28T09:46:15.458Z,101568.81
2023-01-28T09:47:32.626Z,101566.94
2023-01-28T09:48:40.133Z,101565.94
2023-01-28T09:49:48.727Z,101564.06
2023-01-28T09:50:55.061Z,101564.94
2023-01-28T09:51:58.419Z,101567.66
2023-01-28T09:53:25.428Z,101565.63
2023-01-28T09:54:52.679Z,101567.34
2023-01-28T09:55:57.825Z,101568.22
2023-01-28T09:57:23.023Z,101565.34
2023-01-28T09:58:25.167Z,101567.91
2023-01-28T09:59:28.411Z,101564.34
2023-01-28T10:00:42.183Z,101564.34
2023-01-28T10:02:13.351Z,101567.72
2023-01-28T10:03:34.245Z,101567.72
2023-01-28T10:05:05.603Z,101564.03
2023-01-28T10:06:26.537Z,101568.59
2023-01-28T10:07:35.380Z,101573.88
2023-01-28T10:08:55.446Z,101572.31
2023-01-28T10:10:13.724Z,101570.44
2023-01-28T10:11:24.972Z,101580.47
2023-01-28T10:12:58.903Z,101574.03
2023-01-28T10:14:22.358Z,101582.16
2023-01-28T10:15:48.999Z,101584.16
2023-01-28T10:17:00.476Z,101584.16
2023-01-28T10:18:17.214Z,101575.19
2023-01-28T10:19:27.542Z,101583.34
2023-01-28T10:20:41.757Z,101575.19
2023-01-28T10:21:51.888Z,101579.59
2023-01-28T10:23:04.797Z,101587.88
2023-01-28T10:24:18.925Z,101586.88
2023-01-28T10:25:24.442Z,101588.59
2023-01-28T10:26:33.093Z,101586.88
2023-01-28T10:27:37.541Z,101588.75
2023-01-28T10:28:40.118Z,101588.44
2023-01-28T10:29:46.219Z,101592.16
2023-01-28T10:30:49.319Z,101594.69
2023-01-28T10:32:15.321Z,101596.56
2023-01-28T10:33:23.913Z,101594.69
2023-01-28T10:34:26.184Z,101591.16
2023-01-28T10:35:39.882Z,101589.28
2023-01-28T10:36:43.170Z,101598.28
2023-01-28T10:37:45.604Z,101592.16
2023-01-28T10:38:49.330Z,101593.16
2023-01-28T10:39:56.476Z,101601.16
2023-01-28T10:41:04.526Z,101591.16
2023-01-28T10:42:27.311Z,101588.44
2023-01-28T10:43:35.656Z,101590.00
2023-01-28T10:44:44.828Z,101592.69
2023-01-28T10:46:02.837Z,101603.56
2023-01-28T10:47:15.224Z,101601.56
2023-01-28T10:48:33.173Z,101605.25
2023-01-28T10:49:42.385Z,101605.25
2023-01-28T10:51:11.937Z,101594.41
2023-01-28T10:52:15.607Z,101599.84
2023-01-28T10:53:18.961Z,101606.09
2023-01-28T10:54:31.478Z,101603.41
2023-01-28T10:55:56.285Z,101608.66
2023-01-28T10:57:04.221Z,101607.81
2023-01-28T10:58:18.103Z,101602.22
2023-01-28T10:59:42.205Z,101604.94
2023-01-28T11:00:44.467Z,101597.69
2023-01-28T11:01:59.999Z,101603.94
2023-01-28T11:03:02.369Z,101603.09
2023-01-28T11:04:05.070Z,101603.94
2023-01-28T11:05:22.119Z,101610.09
2023-01-28T11:06:27.345Z,101609.06
2023-01-28T11:07:29.593Z,101604.50
2023-01-28T11:08:31.898Z,101599.06
2023-01-28T11:09:38.246Z,101605.19
2023-01-28T11:10:41.168Z,101599.75
2023-01-28T11:11:43.389Z,101597.19
2023-01-28T11:12:55.936Z,101597.91
2023-01-28T11:13:58.796Z,101602.47
2023-01-28T11:15:04.154Z,101600.63
2023-01-28T11:16:17.410Z,101603.19
2023-01-28T11:17:24.938Z,101606.06
2023-01-28T11:18:41.009Z,101596.75
2023-01-28T11:19:43.391Z,101598.59
2023-01-28T11:20:53.835Z,101602.19
2023-01-28T11:21:57.227Z,101595.72
2023-01-28T11:22:59.413Z,101597.59
2023-01-28T11:24:14.721Z,101592.88
2023-01-28T11:25:27.208Z,101600.31
2023-01-28T11:26:38.469Z,101604.88
2023-01-28T11:27:40.935Z,101602.31
2023-01-28T11:28:43.710Z,101598.59
2023-01-28T11:29:46.127Z,101598.59
2023-01-28T11:30:54.525Z,101596.88
2023-01-28T11:31:57.853Z,101598.75
2023-01-28T11:33:06.796Z,101593.31
2023-01-28T11:34:15.652Z,101597.91
2023-01-28T11:35:26.204Z,101600.63
2023-01-28T11:36:34.938Z,101597.91
2023-01-28T11:37:38.764Z,101593.31
2023-01-28T11:38:55.776Z,101594.16
2023-01-28T11:40:21.916Z,101589.78
2023-01-28T11:41:27.796Z,101583.47
2023-01-28T11:42:30.867Z,101581.75
2023-01-28T11:43:33.172Z,101581.91
2023-01-28T11:44:35.765Z,101583.63
2023-01-28T11:45:58.316Z,101577.19
2023-01-28T11:47:10.028Z,101585.50
2023-01-28T11:48:34.248Z,101571.94
2023-01-28T11:50:07.568Z,101566.50
2023-01-28T11:51:43.987Z,101570.06
2023-01-28T11:53:07.021Z,101571.06
2023-01-28T11:54:39.540Z,101576.50
2023-01-28T11:56:40.140Z,101580.25
2023-01-28T11:57:56.307Z,101574.81
2023-01-28T11:59:17.370Z,101566.50
2023-01-28T12:00:52.860Z,101576.50
2023-01-28T12:02:36.633Z,101578.38
2023-01-28T12:04:12.453Z,101579.22
2023-01-28T12:05:50.362Z,101572.09
2023-01-28T12:07:08.166Z,101577.38
2023-01-28T12:08:23.600Z,101572.94
2023-01-28T12:09:55.267Z,101577.66
2023-01-28T12:11:47.440Z,101563.25
2023-01-28T12:12:58.234Z,101570.53
2023-01-28T12:14:12.845Z,101573.09
2023-01-28T12:15:24.555Z,101569.69
2023-01-28T12:16:52.381Z,101556.97
2023-01-28T12:18:19.214Z,101565.13
2023-01-28T12:19:55.063Z,101573.38
2023-01-28T12:20:57.263Z,101569.00
2023-01-28T12:22:21.509Z,101568.84
2023-01-28T12:23:42.560Z,101562.41
2023-01-28T12:25:01.511Z,101557.09
2023-01-28T12:26:27.295Z,101555.28
2023-01-28T12:27:47.420Z,101561.53
2023-01-28T12:29:01.488Z,101552.56
2023-01-28T12:30:15.691Z,101561.38
2023-01-28T12:31:42.721Z,101563.09
2023-01-28T12:32:58.714Z,101565.81
2023-01-28T12:34:09.755Z,101556.81
2023-01-28T12:35:51.392Z,101550.41
2023-01-28T12:37:19.451Z,101559.38
2023-01-28T12:38:28.317Z,101549.53
2023-01-28T12:40:00.677Z,101546.81
2023-01-28T12:41:24.083Z,101546.97
2023-01-28T12:42:35.712Z,101545.81
2023-01-28T12:43:55.183Z,101553.94
2023-01-28T12:45:05.073Z,101554.78
2023-01-28T12:46:37.167Z,101548.34
2023-01-28T12:47:43.878Z,101537.50
2023-01-28T12:49:14.549Z,101546.34
2023-01-28T12:50:25.258Z,101545.31
2023-01-28T12:51:44.209Z,101539.06
2023-01-28T12:52:53.765Z,101535.34
2023-01-28T12:54:22.633Z,101532.63
2023-01-28T12:55:43.093Z,101534.34
2023-01-28T12:56:52.212Z,101537.19
2023-01-28T12:57:58.794Z,101548.03
2023-01-28T12:59:04.683Z,101547.03
2023-01-28T13:00:23.306Z,101537.06
2023-01-28T13:01:44.645Z,101537.88
2023-01-28T13:02:56.445Z,101542.31
2023-01-28T13:04:08.512Z,101540.28
2023-01-28T13:05:14.896Z,101536.72
2023-01-28T13:06:36.575Z,101538.59
2023-01-28T13:07:45.989Z,101529.44
2023-01-28T13:08:50.779Z,101535.72
2023-01-28T13:09:58.875Z,101542.88